Time;durP1;ratioP1;P1;durP2;ratioP2;P2;SDS_P1;SDS_P2;PMS_P1;PMS_P2;Temp;Humidity;BMP_temperature;BMP_pressure;BME280_temperature;BME280_humidity;BME280_pressure;Samples;Min_cycle;Max_cycle;Signal;HPM_P1;HPM_P2
2023/12/28 00:02:24;;;;;;;52.27;28.12;;;;;;;-0.51;95.38;100709.98;1662107;85;25522;-49
2023/12/28 00:04:52;;;;;;;54.60;27.52;;;;;;;-0.49;95.33;100707.41;1636119;85;25459;-50
2023/12/28 00:07:18;;;;;;;58.10;26.20;;;;;;;-0.50;95.39;100690.36;1684080;85;25432;-50
2023/12/28 00:09:45;;;;;;;51.73;27.13;;;;;;;-0.47;95.36;100693.90;1684077;85;25689;-49
2023/12/28 00:12:11;;;;;;;54.50;27.52;;;;;;;-0.47;95.17;100685.92;1684048;85;28355;-49
2023/12/28 00:14:37;;;;;;;59.35;25.70;;;;;;;-0.50;95.35;100676.55;1644695;87;25639;-49
2023/12/28 00:17:08;;;;;;;59.40;26.87;;;;;;;-0.45;95.40;100681.19;1684107;85;25635;-49
2023/12/28 00:19:35;;;;;;;52.20;25.40;;;;;;;-0.44;95.43;100674.84;1662249;85;25639;-52
2023/12/28 00:22:05;;;;;;;55.30;27.05;;;;;;;-0.43;95.39;100665.82;1684129;85;25410;-49
2023/12/28 00:24:32;;;;;;;62.33;25.82;;;;;;;-0.43;95.51;100679.91;1684107;85;27393;-50
2023/12/28 00:26:58;;;;;;;51.37;24.98;;;;;;;-0.41;95.48;100688.49;1683929;85;25552;-50
2023/12/28 00:29:24;;;;;;;49.30;23.75;;;;;;;-0.38;95.54;100684.03;1684089;85;25622;-48
2023/12/28 00:31:51;;;;;;;61.20;29.00;;;;;;;-0.37;95.62;100672.90;1684059;85;25770;-50
2023/12/28 00:34:19;;;;;;;54.45;26.20;;;;;;;-0.35;95.68;100652.21;1684134;85;25639;-50
2023/12/28 00:36:45;;;;;;;51.00;25.32;;;;;;;-0.31;95.76;100632.63;1662333;85;27727;-53
2023/12/28 00:39:11;;;;;;;54.00;25.65;;;;;;;-0.28;95.57;100633.50;1686609;83;25648;-50
2023/12/28 00:41:38;;;;;;;63.58;27.00;;;;;;;-0.28;95.23;100626.33;1663718;86;25467;-50
2023/12/28 00:44:09;;;;;;;50.05;25.32;;;;;;;-0.28;95.22;100638.82;1690630;84;25704;-49
2023/12/28 00:46:33;;;;;;;51.73;25.95;;;;;;;-0.32;95.04;100635.81;1663307;86;25498;-50
2023/12/28 00:49:00;;;;;;;51.90;24.60;;;;;;;-0.32;94.99;100630.50;1690698;84;27421;-50
2023/12/28 00:51:26;;;;;;;53.98;26.23;;;;;;;-0.33;95.04;100625.41;1663671;86;25513;-50
2023/12/28 00:53:52;;;;;;;53.78;25.32;;;;;;;-0.35;94.92;100628.81;1690690;84;25433;-49
2023/12/28 00:56:20;;;;;;;54.27;25.43;;;;;;;-0.36;95.06;100644.46;1639824;86;25680;-49
2023/12/28 00:58:47;;;;;;;50.33;24.45;;;;;;;-0.37;95.07;100643.66;1666122;84;25448;-49
2023/12/28 01:01:13;;;;;;;43.08;22.67;;;;;;;-0.38;95.14;100657.45;1640480;86;27398;-50
2023/12/28 01:03:39;;;;;;;49.18;23.67;;;;;;;-0.41;95.49;100659.26;1690618;84;25498;-50
2023/12/28 01:06:06;;;;;;;43.83;21.15;;;;;;;-0.42;95.47;100654.16;1664588;85;25511;-50
2023/12/28 01:08:35;;;;;;;43.95;22.93;;;;;;;-0.45;95.72;100656.74;1664648;85;25607;-49
2023/12/28 01:11:02;;;;;;;52.58;23.57;;;;;;;-0.46;95.64;100658.30;1688625;85;25518;-48
2023/12/28 01:13:30;;;;;;;43.87;20.88;;;;;;;-0.48;95.77;100653.20;1671732;85;27510;-50
2023/12/28 01:15:57;;;;;;;46.28;21.97;;;;;;;-0.50;96.05;100655.28;1666691;84;25472;-49
2023/12/28 01:18:23;;;;;;;45.63;22.02;;;;;;;-0.51;96.11;100639.06;1663752;86;25520;-49
2023/12/28 01:20:49;;;;;;;41.73;19.62;;;;;;;-0.51;96.39;100632.42;1690649;84;26226;-49
2023/12/28 01:23:16;;;;;;;47.73;20.85;;;;;;;-0.51;96.27;100633.75;1663729;86;25518;-49
2023/12/28 01:25:42;;;;;;;43.75;21.85;;;;;;;-0.52;96.44;100629.45;1666833;84;27269;-53
2023/12/28 01:28:08;;;;;;;42.23;20.52;;;;;;;-0.53;96.63;100621.19;1664484;85;25630;-53
2023/12/28 01:30:34;;;;;;;40.78;19.17;;;;;;;-0.55;96.65;100614.48;1671760;85;25480;-52
2023/12/28 01:33:00;;;;;;;44.42;18.67;;;;;;;-0.58;96.48;100605.94;1648250;85;25643;-53
2023/12/28 01:35:27;;;;;;;42.78;19.10;;;;;;;-0.56;96.95;100611.03;1671772;85;25536;-53
2023/12/28 01:37:53;;;;;;;41.63;18.95;;;;;;;-0.57;97.03;100610.20;1671723;85;28108;-50
2023/12/28 01:40:20;;;;;;;39.23;18.55;;;;;;;-0.57;97.03;100610.20;1670425;85;25725;-49
2023/12/28 01:42:46;;;;;;;44.13;18.82;;;;;;;-0.56;97.23;100603.06;1642781;85;25494;-49
2023/12/28 01:45:13;;;;;;;41.35;17.73;;;;;;;-0.57;97.15;100596.91;1659801;86;25643;-53
2023/12/28 01:47:39;;;;;;;36.48;18.23;;;;;;;-0.57;97.40;100594.78;1689201;85;25411;-49
2023/12/28 01:50:07;;;;;;;44.65;17.10;;;;;;;-0.58;97.55;100584.69;1636617;86;28179;-51
2023/12/28 01:52:34;;;;;;;37.00;16.32;;;;;;;-0.58;97.45;100587.34;1689084;85;25661;-50
2023/12/28 01:55:00;;;;;;;38.78;17.57;;;;;;;-0.59;97.84;100584.38;1636201;86;25608;-51
2023/12/28 01:57:27;;;;;;;33.67;16.67;;;;;;;-0.59;97.80;100572.95;1688712;85;25609;-50
2023/12/28 01:59:54;;;;;;;40.20;18.57;;;;;;;-0.61;98.13;100561.22;1635584;86;25548;-50
2023/12/28 02:02:22;;;;;;;34.40;16.30;;;;;;;-0.62;98.31;100564.90;1664801;85;27329;-50
2023/12/28 02:04:49;;;;;;;36.00;17.23;;;;;;;-0.62;98.08;100555.60;1659350;86;25510;-49
2023/12/28 02:07:16;;;;;;;37.15;17.50;;;;;;;-0.63;98.43;100537.23;1664568;85;25581;-51
2023/12/28 02:09:42;;;;;;;39.08;18.12;;;;;;;-0.61;98.53;100539.16;1647214;85;26362;-50
2023/12/28 02:12:09;;;;;;;33.85;15.95;;;;;;;-0.61;98.60;100539.16;1689214;85;25414;-50
2023/12/28 02:14:35;;;;;;;31.07;15.60;;;;;;;-0.59;98.67;100541.06;1659855;86;27349;-49
2023/12/28 02:17:10;;;;;;;33.02;15.65;;;;;;;-0.57;99.10;100539.78;1689069;85;25545;-49
2023/12/28 02:19:56;;;;;;;35.00;15.48;;;;;;;-0.54;99.10;100525.77;1658874;86;25458;-49
2023/12/28 02:22:26;;;;;;;35.65;15.18;;;;;;;-0.52;99.01;100524.48;1689167;85;25547;-50
2023/12/28 02:25:14;;;;;;;37.23;15.58;;;;;;;-0.51;98.95;100498.22;1647018;85;25432;-50
2023/12/28 02:27:46;;;;;;;29.65;14.58;;;;;;;-0.49;99.35;100484.17;1646443;85;28200;-49
2023/12/28 02:30:18;;;;;;;33.40;14.93;;;;;;;-0.48;98.65;100489.76;1672375;85;25484;-50
2023/12/28 02:33:01;;;;;;;32.95;15.95;;;;;;;-0.48;98.59;100497.73;1643745;87;25477;-49
2023/12/28 02:35:42;;;;;;;42.38;16.97;;;;;;;-0.47;98.47;100495.91;1689155;85;25733;-51
2023/12/28 02:38:14;;;;;;;38.70;16.87;;;;;;;-0.48;98.42;100496.41;1658706;86;25540;-50
2023/12/28 02:40:44;;;;;;;37.38;15.83;;;;;;;-0.50;98.46;100485.20;1665018;84;27412;-51
2023/12/28 02:43:11;;;;;;;38.35;16.37;;;;;;;-0.48;98.71;100480.45;1665297;85;25687;-49
2023/12/28 02:45:39;;;;;;;29.95;14.55;;;;;;;-0.48;98.60;100479.66;1689142;85;25424;-53
2023/12/28 02:48:06;;;;;;;35.68;16.95;;;;;;;-0.48;98.56;100473.02;1689119;84;26333;-51
2023/12/28 02:50:33;;;;;;;37.42;16.57;;;;;;;-0.50;98.70;100465.27;1672450;85;25398;-50
2023/12/28 02:53:00;;;;;;;39.65;15.23;;;;;;;-0.49;98.68;100464.24;1665067;85;27342;-53
2023/12/28 02:55:26;;;;;;;35.88;16.65;;;;;;;-0.48;98.90;100460.53;1659789;86;25474;-50
2023/12/28 02:57:55;;;;;;;35.20;15.05;;;;;;;-0.47;98.93;100452.86;1665180;85;25447;-53
2023/12/28 03:00:21;;;;;;;32.93;15.43;;;;;;;-0.45;99.16;100460.59;1660068;86;25691;-53
2023/12/28 03:02:48;;;;;;;31.37;14.90;;;;;;;-0.45;99.03;100455.28;1665230;85;25479;-49
2023/12/28 03:05:14;;;;;;;29.15;14.83;;;;;;;-0.43;99.05;100455.33;1672510;85;27310;-49
2023/12/28 03:07:42;;;;;;;33.02;14.30;;;;;;;-0.41;99.14;100455.92;1670282;85;25439;-50
2023/12/28 03:10:11;;;;;;;34.38;14.40;;;;;;;-0.40;99.42;100444.77;1647093;85;25494;-49
2023/12/28 03:12:38;;;;;;;32.42;15.30;;;;;;;-0.36;99.59;100434.48;1689365;85;25723;-53
2023/12/28 03:15:06;;;;;;;32.38;13.90;;;;;;;-0.36;99.59;100434.48;1665221;85;25517;-51
2023/12/28 03:17:32;;;;;;;30.25;13.58;;;;;;;-0.33;99.50;100421.52;1665266;85;28006;-51
2023/12/28 03:19:59;;;;;;;34.33;13.98;;;;;;;-0.30;99.71;100422.92;1672584;85;25585;-50
2023/12/28 03:22:26;;;;;;;30.75;14.53;;;;;;;-0.28;99.70;100420.83;1647258;85;25448;-50
2023/12/28 03:24:52;;;;;;;28.20;13.90;;;;;;;-0.26;99.82;100404.13;1689251;85;25610;-54
2023/12/28 03:27:19;;;;;;;31.42;13.43;;;;;;;-0.23;99.76;100410.30;1659978;86;25420;-50
2023/12/28 03:29:45;;;;;;;33.28;13.50;;;;;;;-0.21;99.71;100407.69;1689258;85;27879;-50
2023/12/28 03:32:12;;;;;;;28.30;13.32;;;;;;;-0.19;99.72;100399.48;1636528;86;25606;-50
2023/12/28 03:34:39;;;;;;;29.48;13.48;;;;;;;-0.16;99.67;100399.02;1689237;85;25474;-50
2023/12/28 03:37:06;;;;;;;27.75;13.43;;;;;;;-0.15;99.59;100400.64;1636487;86;25496;-50
2023/12/28 03:39:33;;;;;;;31.93;13.65;;;;;;;-0.14;99.43;100392.94;1695149;83;25403;-49
2023/12/28 03:41:59;;;;;;;29.63;13.22;;;;;;;-0.14;99.37;100392.13;1718326;83;27900;-53
2023/12/28 03:44:26;;;;;;;27.07;13.55;;;;;;;-0.14;99.20;100391.60;1691481;83;25630;-50
2023/12/28 03:46:52;;;;;;;26.95;13.13;;;;;;;-0.14;99.06;100385.48;1718308;83;25481;-50
2023/12/28 03:49:20;;;;;;;30.23;12.35;;;;;;;-0.15;99.06;100383.36;1718280;83;25485;-51
2023/12/28 03:51:49;;;;;;;31.65;12.07;;;;;;;-0.17;98.91;100378.80;1718339;83;25399;-52
2023/12/28 03:54:18;;;;;;;26.45;12.47;;;;;;;-0.16;98.76;100378.27;1718440;83;28031;-49
2023/12/28 03:56:45;;;;;;;30.77;12.85;;;;;;;-0.16;98.81;100379.07;1691227;83;25774;-52
2023/12/28 03:59:12;;;;;;;32.65;12.00;;;;;;;-0.16;98.84;100376.95;1691453;83;25419;-50
2023/12/28 04:01:38;;;;;;;30.80;12.70;;;;;;;-0.18;98.82;100362.55;1718273;83;25605;-53
2023/12/28 04:04:05;;;;;;;26.68;13.22;;;;;;;-0.18;98.64;100363.09;1691651;83;25489;-52
2023/12/28 04:06:31;;;;;;;29.75;12.68;;;;;;;-0.20;98.53;100354.01;1718263;83;28023;-53
2023/12/28 04:08:57;;;;;;;30.85;11.80;;;;;;;-0.22;98.45;100351.59;1691437;83;25492;-49
2023/12/28 04:11:24;;;;;;;29.65;12.85;;;;;;;-0.21;98.51;100344.41;1691611;83;25419;-49
2023/12/28 04:13:51;;;;;;;28.85;12.13;;;;;;;-0.21;98.62;100341.75;1718250;83;25585;-50
2023/12/28 04:16:17;;;;;;;24.47;11.25;;;;;;;-0.23;98.76;100334.53;1718315;83;25480;-50
2023/12/28 04:18:44;;;;;;;28.30;11.73;;;;;;;-0.25;98.76;100337.42;1718280;83;27344;-52
2023/12/28 04:21:12;;;;;;;27.70;11.65;;;;;;;-0.25;98.90;100330.78;1718201;83;25462;-51
2023/12/28 04:23:40;;;;;;;23.60;11.45;;;;;;;-0.26;98.88;100317.73;1718258;83;25473;-51
2023/12/28 04:26:07;;;;;;;25.27;11.63;;;;;;;-0.24;98.95;100318.29;1691688;83;26344;-51
2023/12/28 04:28:36;;;;;;;27.27;11.15;;;;;;;-0.24;99.08;100325.77;1718308;83;25497;-50
2023/12/28 04:31:05;;;;;;;25.05;11.48;;;;;;;-0.22;98.98;100317.55;1718261;83;27327;-49
2023/12/28 04:33:31;;;;;;;31.25;10.70;;;;;;;-0.22;99.06;100312.23;1688440;85;25405;-51
2023/12/28 04:36:04;;;;;;;22.87;10.38;;;;;;;-0.21;98.88;100318.63;1678868;85;25430;-51
2023/12/28 04:38:31;;;;;;;24.45;10.80;;;;;;;-0.19;98.94;100293.12;1718255;83;25640;-50
2023/12/28 04:40:59;;;;;;;20.85;9.85;;;;;;;-0.17;98.72;100283.59;1718163;83;25469;-51
2023/12/28 04:43:25;;;;;;;19.75;10.25;;;;;;;-0.16;98.49;100294.52;1718259;83;28003;-49
2023/12/28 04:45:52;;;;;;;23.83;10.15;;;;;;;-0.17;98.36;100287.08;1718122;83;25426;-51
2023/12/28 04:48:20;;;;;;;23.42;9.18;;;;;;;-0.14;98.38;100271.95;1691367;83;25511;-53
2023/12/28 04:50:50;;;;;;;23.22;10.08;;;;;;;-0.09;98.19;100265.39;1718217;83;25667;-49
2023/12/28 04:53:17;;;;;;;21.85;9.48;;;;;;;-0.04;98.06;100274.00;1691663;83;25464;-49
2023/12/28 04:55:43;;;;;;;22.37;10.55;;;;;;;-0.03;97.78;100265.78;1691360;83;27349;-49
2023/12/28 04:58:12;;;;;;;24.00;10.40;;;;;;;0.02;97.67;100262.92;1718166;83;25424;-51
2023/12/28 05:00:38;;;;;;;24.72;11.12;;;;;;;0.05;97.36;100265.10;1691915;83;25518;-51
2023/12/28 05:03:06;;;;;;;23.18;10.23;;;;;;;0.08;97.11;100256.12;1668408;83;25692;-51
2023/12/28 05:05:33;;;;;;;25.25;9.93;;;;;;;0.12;96.61;100249.29;1718286;83;25403;-51
2023/12/28 05:07:59;;;;;;;25.90;10.78;;;;;;;0.16;96.49;100234.98;1718209;83;27340;-49
2023/12/28 05:10:25;;;;;;;22.25;10.20;;;;;;;0.19;96.19;100234.51;1691187;83;25506;-51
2023/12/28 05:12:51;;;;;;;25.55;10.50;;;;;;;0.23;95.88;100234.30;1691236;83;25425;-50
2023/12/28 05:15:19;;;;;;;29.57;10.58;;;;;;;0.27;95.80;100234.08;1718207;83;26171;-51
2023/12/28 05:17:45;;;;;;;28.47;10.68;;;;;;;0.29;95.57;100235.17;1718276;83;25513;-50
2023/12/28 05:20:12;;;;;;;23.18;11.22;;;;;;;0.30;95.29;100235.47;1688450;85;27396;-50
2023/12/28 05:22:38;;;;;;;23.98;10.88;;;;;;;0.31;94.92;100227.25;1678713;85;25458;-49
2023/12/28 05:25:05;;;;;;;24.30;12.55;;;;;;;0.34;94.86;100220.11;1698398;84;25484;-49
2023/12/28 05:27:31;;;;;;;25.27;11.78;;;;;;;0.35;94.75;100228.36;1670260;84;25605;-49
2023/12/28 05:29:58;;;;;;;22.80;11.53;;;;;;;0.37;94.45;100214.81;1688469;85;25436;-51
2023/12/28 05:32:24;;;;;;;27.05;13.10;;;;;;;0.39;94.34;100214.58;1651294;85;27349;-49
2023/12/28 05:34:50;;;;;;;25.25;11.50;;;;;;;0.39;93.75;100200.73;1698346;84;25576;-51
2023/12/28 05:37:16;;;;;;;24.47;11.93;;;;;;;0.43;93.79;100203.75;1670318;84;25410;-51
2023/12/28 05:39:42;;;;;;;22.98;11.75;;;;;;;0.43;93.70;100181.92;1698238;83;25616;-52
2023/12/28 05:42:09;;;;;;;26.75;11.85;;;;;;;0.44;93.60;100164.09;1664476;85;25479;-50
2023/12/28 05:44:35;;;;;;;30.75;13.00;;;;;;;0.44;93.42;100162.23;1664467;85;27341;-49
2023/12/28 05:47:03;;;;;;;27.07;13.10;;;;;;;0.42;93.32;100152.36;1671611;85;25465;-49
2023/12/28 05:49:30;;;;;;;25.92;12.85;;;;;;;0.43;93.22;100155.84;1671726;85;25420;-48
2023/12/28 05:51:56;;;;;;;27.00;11.90;;;;;;;0.43;93.14;100152.64;1690639;84;25641;-49
2023/12/28 05:54:22;;;;;;;30.02;13.98;;;;;;;0.46;93.12;100150.83;1664557;85;25511;-49
2023/12/28 05:56:49;;;;;;;28.50;13.83;;;;;;;0.47;92.92;100143.64;1671704;85;27357;-51
2023/12/28 05:59:15;;;;;;;23.40;12.10;;;;;;;0.48;92.93;100126.64;1666681;84;25442;-49
2023/12/28 06:01:43;;;;;;;38.00;16.02;;;;;;;0.49;92.82;100118.91;1663707;86;25426;-50
2023/12/28 06:04:09;;;;;;;24.55;12.00;;;;;;;0.48;92.61;100119.98;1690619;84;26217;-49
2023/12/28 06:06:36;;;;;;;29.82;13.70;;;;;;;0.50;92.65;100129.32;1688406;85;25509;-50
2023/12/28 06:09:03;;;;;;;27.37;13.43;;;;;;;0.52;92.72;100133.07;1648062;85;27347;-50
2023/12/28 06:11:30;;;;;;;29.25;13.78;;;;;;;0.55;92.43;100156.53;1690581;84;25485;-51
2023/12/28 06:13:56;;;;;;;29.60;14.03;;;;;;;0.55;92.57;100156.53;1663706;86;25447;-50
2023/12/28 06:16:22;;;;;;;27.22;15.78;;;;;;;0.59;92.11;100152.86;1690627;84;25397;-49
2023/12/28 06:18:49;;;;;;;27.87;14.13;;;;;;;0.60;92.26;100145.95;1688145;85;25419;-49
2023/12/28 06:21:15;;;;;;;28.75;13.50;;;;;;;0.60;92.21;100143.30;1647902;85;27416;-50
2023/12/28 06:23:41;;;;;;;32.20;14.98;;;;;;;0.60;92.02;100141.17;1666650;84;25586;-50
2023/12/28 06:26:08;;;;;;;29.05;14.38;;;;;;;0.59;91.91;100144.34;1663682;86;25476;-50
2023/12/28 06:28:34;;;;;;;26.48;13.68;;;;;;;0.58;91.85;100138.75;1690623;84;25620;-50
2023/12/28 06:31:00;;;;;;;31.27;13.72;;;;;;;0.57;91.66;100147.78;1663739;86;25461;-50
2023/12/28 06:33:29;;;;;;;27.13;14.33;;;;;;;0.58;91.71;100145.91;1666889;84;27351;-50
2023/12/28 06:35:57;;;;;;;30.23;14.80;;;;;;;0.57;91.67;100157.09;1662849;86;25451;-49
2023/12/28 06:38:24;;;;;;;31.85;14.53;;;;;;;0.58;91.62;100164.04;1667281;84;25504;-49
2023/12/28 06:40:51;;;;;;;26.70;14.85;;;;;;;0.56;91.54;100155.47;1666257;85;26125;-51
2023/12/28 06:43:17;;;;;;;33.42;15.08;;;;;;;0.56;91.52;100163.45;1670440;84;25411;-53
2023/12/28 06:45:44;;;;;;;29.02;14.98;;;;;;;0.53;91.50;100159.98;1670601;84;27282;-50
2023/12/28 06:48:10;;;;;;;28.65;15.55;;;;;;;0.53;91.48;100166.63;1698448;84;25493;-53
2023/12/28 06:50:36;;;;;;;32.98;15.35;;;;;;;0.51;91.39;100174.03;1698552;84;25486;-51
2023/12/28 06:53:03;;;;;;;29.00;14.28;;;;;;;0.50;91.28;100163.13;1718318;83;26175;-50
2023/12/28 06:55:29;;;;;;;33.78;14.87;;;;;;;0.49;91.31;100155.64;1718390;83;25392;-49
2023/12/28 06:57:55;;;;;;;29.70;14.68;;;;;;;0.49;91.38;100152.19;1718364;83;27329;-51
2023/12/28 07:00:22;;;;;;;34.08;16.12;;;;;;;0.48;91.41;100140.74;1718272;83;25422;-50
2023/12/28 07:02:48;;;;;;;32.65;15.43;;;;;;;0.49;91.39;100136.22;1718347;83;25509;-50
2023/12/28 07:05:14;;;;;;;30.68;15.83;;;;;;;0.48;91.42;100119.45;1718292;83;25623;-49
2023/12/28 07:07:40;;;;;;;30.30;15.20;;;;;;;0.50;91.43;100132.52;1718360;83;25455;-50
2023/12/28 07:10:08;;;;;;;35.30;16.77;;;;;;;0.51;91.48;100130.11;1718328;83;27352;-50
2023/12/28 07:12:34;;;;;;;31.30;15.53;;;;;;;0.50;91.43;100122.66;1691423;83;25509;-48
2023/12/28 07:15:00;;;;;;;36.53;16.02;;;;;;;0.52;91.45;100109.11;1691718;83;25432;-50
2023/12/28 07:17:27;;;;;;;29.52;15.53;;;;;;;0.55;91.54;100111.29;1691586;83;25627;-49
2023/12/28 07:19:53;;;;;;;32.03;16.27;;;;;;;0.56;91.44;100106.23;1698561;84;25422;-51
2023/12/28 07:22:20;;;;;;;28.90;15.45;;;;;;;0.56;91.43;100102.23;1698492;84;28049;-52
2023/12/28 07:24:46;;;;;;;35.48;15.50;;;;;;;0.59;91.46;100110.27;1698448;83;25428;-50
2023/12/28 07:27:12;;;;;;;37.80;15.65;;;;;;;0.59;91.53;100103.08;1698491;84;25452;-49
2023/12/28 07:29:39;;;;;;;34.98;16.27;;;;;;;0.64;91.48;100109.00;1698514;83;25595;-49
2023/12/28 07:32:08;;;;;;;27.27;14.95;;;;;;;0.66;91.39;100105.56;1698551;84;25380;-50
2023/12/28 07:34:33;;;;;;;31.30;15.17;;;;;;;0.68;91.46;100102.94;1698720;83;28002;-50
2023/12/28 07:37:00;;;;;;;31.73;15.55;;;;;;;0.73;91.37;100100.84;1698433;83;25478;-49
2023/12/28 07:39:26;;;;;;;27.55;14.60;;;;;;;0.77;91.51;100099.31;1670246;84;25465;-50
2023/12/28 07:41:52;;;;;;;30.25;15.38;;;;;;;0.81;91.41;100090.30;1693511;83;25726;-49
2023/12/28 07:44:19;;;;;;;30.30;15.40;;;;;;;0.83;91.40;100084.19;1688543;85;25467;-50
2023/12/28 07:46:45;;;;;;;32.53;15.75;;;;;;;0.93;91.38;100096.29;1688500;85;27347;-55
2023/12/28 07:49:12;;;;;;;36.45;16.05;;;;;;;0.97;91.39;100088.09;1688399;85;25479;-50
2023/12/28 07:51:38;;;;;;;30.92;15.68;;;;;;;1.08;91.60;100083.13;1671851;85;25468;-53
2023/12/28 07:54:05;;;;;;;34.73;16.32;;;;;;;1.19;91.42;100080.57;1666734;84;25576;-49
2023/12/28 07:56:31;;;;;;;31.40;15.38;;;;;;;1.28;91.28;100078.54;1664777;85;25469;-50
2023/12/28 07:58:58;;;;;;;36.75;15.18;;;;;;;1.38;91.33;100086.34;1671794;85;27350;-50
2023/12/28 08:01:25;;;;;;;30.23;16.60;;;;;;;1.49;91.06;100084.84;1671739;85;25544;-50
2023/12/28 08:03:51;;;;;;;29.85;14.75;;;;;;;1.60;90.94;100087.59;1690747;84;25449;-49
2023/12/28 08:06:18;;;;;;;27.17;14.85;;;;;;;1.71;90.57;100087.17;1663739;86;25572;-51
2023/12/28 08:08:44;;;;;;;30.72;15.55;;;;;;;1.79;90.49;100090.17;1666848;84;25466;-49
2023/12/28 08:11:11;;;;;;;33.28;15.85;;;;;;;1.89;90.53;100091.29;1663783;86;27372;-50
2023/12/28 08:13:38;;;;;;;29.30;15.58;;;;;;;1.95;90.05;100100.95;1690665;84;25423;-52
2023/12/28 08:16:06;;;;;;;26.37;14.78;;;;;;;2.02;89.68;100100.98;1664699;85;25518;-49
2023/12/28 08:18:32;;;;;;;29.23;15.60;;;;;;;2.09;89.50;100116.77;1671767;85;25679;-49
2023/12/28 08:21:00;;;;;;;27.32;14.70;;;;;;;2.18;89.53;100118.43;1671848;85;25465;-49
2023/12/28 08:23:26;;;;;;;30.40;13.53;;;;;;;2.22;89.42;100111.00;1690752;84;28189;-50
2023/12/28 08:25:52;;;;;;;29.12;14.65;;;;;;;2.26;88.83;100095.27;1640295;86;25586;-50
2023/12/28 08:28:19;;;;;;;26.27;13.62;;;;;;;2.31;88.93;100104.64;1690726;84;25451;-51
2023/12/28 08:30:45;;;;;;;26.25;13.78;;;;;;;2.32;88.30;100098.79;1663766;86;25625;-49
2023/12/28 08:33:11;;;;;;;27.13;14.68;;;;;;;2.35;88.63;100076.38;1690741;84;25495;-49
2023/12/28 08:35:38;;;;;;;27.00;13.90;;;;;;;2.42;88.74;100075.61;1688510;85;27959;-49
2023/12/28 08:38:05;;;;;;;26.82;13.85;;;;;;;2.45;88.26;100073.48;1664678;85;25460;-52
2023/12/28 08:40:32;;;;;;;26.97;13.28;;;;;;;2.46;88.23;100068.42;1648065;85;25503;-50
2023/12/28 08:42:58;;;;;;;26.25;13.10;;;;;;;2.47;88.04;100063.34;1678451;85;25629;-51
2023/12/28 08:45:25;;;;;;;30.35;14.30;;;;;;;2.47;87.65;100051.32;1691561;83;25493;-50
2023/12/28 08:47:51;;;;;;;28.05;13.95;;;;;;;2.45;87.75;100054.25;1718216;83;27937;-51
2023/12/28 08:50:17;;;;;;;32.28;15.38;;;;;;;2.46;87.82;100050.53;1718174;83;25473;-51
2023/12/28 08:52:46;;;;;;;30.52;14.35;;;;;;;2.49;87.68;100054.56;1691590;83;25491;-52
2023/12/28 08:55:12;;;;;;;27.55;14.13;;;;;;;2.52;87.89;100064.18;1686775;83;25692;-49
2023/12/28 08:57:38;;;;;;;29.77;15.00;;;;;;;2.53;87.74;100065.77;1670459;84;25428;-53
2023/12/28 09:00:07;;;;;;;26.50;13.90;;;;;;;2.56;87.67;100071.93;1671345;84;27286;-53
2023/12/28 09:02:33;;;;;;;30.05;14.93;;;;;;;2.59;87.77;100068.74;1698519;83;25532;-50
2023/12/28 09:05:00;;;;;;;27.73;14.85;;;;;;;2.62;87.86;100066.06;1670518;84;25440;-53
2023/12/28 09:07:27;;;;;;;26.60;13.62;;;;;;;2.66;87.54;100069.05;1670495;84;25557;-51
2023/12/28 09:09:53;;;;;;;33.30;14.68;;;;;;;2.70;87.72;100062.11;1698483;83;25433;-52
2023/12/28 09:12:20;;;;;;;25.95;13.80;;;;;;;2.74;87.53;100041.80;1718238;83;27331;-50
2023/12/28 09:14:46;;;;;;;25.90;14.30;;;;;;;2.78;87.62;100053.05;1691640;83;25724;-50
2023/12/28 09:17:12;;;;;;;25.90;14.33;;;;;;;2.82;87.50;100058.66;1718278;83;25464;-50
2023/12/28 09:19:39;;;;;;;25.12;14.13;;;;;;;2.86;87.56;100044.25;1718260;83;25909;-48
2023/12/28 09:22:05;;;;;;;28.02;14.75;;;;;;;2.92;87.09;100048.55;1718303;83;25497;-52
2023/12/28 09:24:31;;;;;;;27.62;14.43;;;;;;;2.96;87.34;100046.42;1718300;83;27338;-50
2023/12/28 09:26:58;;;;;;;30.57;13.70;;;;;;;3.03;87.66;100047.52;1718153;83;25637;-49
2023/12/28 09:29:24;;;;;;;26.20;14.58;;;;;;;3.11;87.56;100044.30;1718232;83;25384;-49
2023/12/28 09:31:50;;;;;;;27.20;13.50;;;;;;;3.18;87.71;100043.52;1691644;83;25528;-51
2023/12/28 09:34:17;;;;;;;28.32;14.18;;;;;;;3.25;87.59;100046.45;1718246;83;25421;-49
2023/12/28 09:36:43;;;;;;;27.05;14.05;;;;;;;3.30;87.40;100043.78;1691558;83;27423;-49
2023/12/28 09:39:11;;;;;;;26.97;13.50;;;;;;;3.36;87.28;100046.20;1718136;83;25642;-50
2023/12/28 09:41:43;;;;;;;28.30;13.53;;;;;;;3.41;87.21;100032.03;1718932;83;25526;-50
2023/12/28 09:44:12;;;;;;;23.10;13.10;;;;;;;3.45;87.48;100030.96;1721016;83;26178;-49
2023/12/28 09:46:44;;;;;;;27.85;14.10;;;;;;;3.54;87.50;100030.68;1696476;83;26669;-49
2023/12/28 09:49:11;;;;;;;26.60;13.00;;;;;;;3.59;87.37;100020.52;1673409;83;27503;-49
2023/12/28 09:51:38;;;;;;;21.37;12.53;;;;;;;3.63;87.05;100010.36;1720957;83;25794;-50
2023/12/28 09:54:04;;;;;;;23.77;12.23;;;;;;;3.68;87.12;100017.05;1696042;83;25431;-50
2023/12/28 09:56:33;;;;;;;23.30;13.03;;;;;;;3.74;87.39;100017.83;1721025;83;25673;-49
2023/12/28 09:59:01;;;;;;;23.92;14.03;;;;;;;3.79;87.32;100024.52;1695981;83;25442;-50
2023/12/28 10:01:27;;;;;;;25.45;14.05;;;;;;;3.82;88.12;100023.98;1721133;83;27386;-49
2023/12/28 10:03:54;;;;;;;25.12;14.80;;;;;;;3.86;88.79;100035.73;1721045;82;25572;-50
2023/12/28 10:06:21;;;;;;;30.25;14.70;;;;;;;3.87;89.18;100045.92;1721188;83;25407;-50
2023/12/28 10:08:49;;;;;;;27.15;15.13;;;;;;;3.89;89.67;100039.75;1673302;83;25483;-49
2023/12/28 10:11:17;;;;;;;34.33;16.00;;;;;;;3.92;90.33;100036.55;1695880;83;25431;-50
2023/12/28 10:13:46;;;;;;;31.12;14.60;;;;;;;3.94;90.55;100039.75;1721195;83;28007;-51
2023/12/28 10:16:13;;;;;;;29.50;14.70;;;;;;;3.97;90.99;100036.53;1721241;83;25416;-50
2023/12/28 10:18:46;;;;;;;27.58;14.85;;;;;;;4.02;91.34;100033.02;1701581;84;25442;-51
2023/12/28 10:21:12;;;;;;;25.90;14.20;;;;;;;4.02;91.81;100028.49;1721174;83;25620;-50
2023/12/28 10:23:39;;;;;;;27.22;14.93;;;;;;;4.10;92.11;100037.83;1696537;83;25459;-50
2023/12/28 10:26:06;;;;;;;26.15;15.55;;;;;;;4.12;92.35;100037.05;1721237;83;27374;-51
2023/12/28 10:28:33;;;;;;;31.95;15.10;;;;;;;4.15;92.59;100035.13;1696360;83;25526;-50
2023/12/28 10:30:59;;;;;;;23.07;12.63;;;;;;;4.18;92.91;100028.45;1696294;83;25469;-51
2023/12/28 10:33:25;;;;;;;22.75;12.10;;;;;;;4.22;93.24;100029.49;1721161;83;25617;-51
2023/12/28 10:35:52;;;;;;;22.87;12.15;;;;;;;4.29;93.46;100017.95;1696311;83;25494;-50
2023/12/28 10:38:19;;;;;;;20.82;11.80;;;;;;;4.35;93.70;100020.89;1696489;83;27343;-49
2023/12/28 10:40:51;;;;;;;24.65;11.73;;;;;;;4.42;93.84;100010.67;1721104;83;25392;-50
2023/12/28 10:43:17;;;;;;;20.20;11.08;;;;;;;4.52;93.98;100015.73;1719699;83;25110;-50
2023/12/28 10:45:50;;;;;;;16.48;9.58;;;;;;;4.62;94.01;100011.13;1721411;83;25594;-52
2023/12/28 10:48:21;;;;;;;16.57;8.88;;;;;;;4.72;93.80;100020.20;1696471;83;25426;-50
2023/12/28 10:50:50;;;;;;;17.80;9.13;;;;;;;4.84;93.70;100005.92;1721206;83;27902;-51
2023/12/28 10:53:47;;;;;;;18.15;9.38;;;;;;;4.97;93.03;100001.28;1696093;83;25741;-49
2023/12/28 10:56:47;;;;;;;16.17;8.40;;;;;;;5.09;92.97;100010.33;1650910;86;25740;-51
2023/12/28 10:59:39;;;;;;;17.80;8.93;;;;;;;5.23;92.64;100017.19;1650971;86;26208;-51
2023/12/28 11:02:09;;;;;;;13.83;8.00;;;;;;;5.36;92.14;100017.08;1628592;86;25495;-50
2023/12/28 11:04:46;;;;;;;14.60;7.67;;;;;;;5.49;91.69;100016.44;1651094;86;27429;-53
2023/12/28 11:07:15;;;;;;;11.55;7.00;;;;;;;5.59;89.99;100015.00;1650782;86;25491;-51
2023/12/28 11:09:42;;;;;;;11.15;7.10;;;;;;;5.73;90.62;100025.88;1651188;86;35223;-52
2023/12/28 11:12:13;;;;;;;12.98;7.30;;;;;;;5.86;89.52;100019.61;1628832;86;25724;-51
2023/12/28 11:14:40;;;;;;;11.35;6.67;;;;;;;5.94;89.92;100024.33;1629420;86;25583;-52
2023/12/28 11:17:07;;;;;;;14.68;6.55;;;;;;;6.01;89.18;100018.13;1651019;86;27521;-54